x

West Orca Bay - 8nm Nw Of Hinchinbrook Is , Ak (46060) Wave Buoy

3:50am - Mon 5th Dec 2016 All times are AKST. -9 hours from GMT.

  • Sig Wave height 2.3ft
  • Swell Direction
  • Peak Period 5s
  • Average Period 4s
  • Wind
    11mph, 13mph gusts
  • Sea Temp 46°f
  • Air Temp 29°f
  • Sea Pressure 1025.6mb
  • West Orca Bay - 8nm Nw Of Hinchinbrook  Is , Ak
  • West Orca Bay - 8nm Nw Of Hinchinbrook  Is , Ak

More Historic Weather Station data

Upgrade to MSW Pro to gain access to the past 30 days of data for over 8000 Wavebouys and Weather Stations around the globe.

Join Pro

Comparision Forecast

View Surf forecast
   
Mon 12/05 3:50am 2.5ft 5s 4s 11 13 mph 1025.6mb 46f 29f
2:50am 2.5ft 5s 4s 7 9 mph 1025.8mb 45f 29f
1:50am 2.5ft 5s 4s 4 7 mph 1025.6mb 45f 29f
12:50am 2.5ft 5s 4s 9 13 mph 1025.6mb 45f 29f
Sun 12/04 11:50pm 3.5ft 6s 4s 16 20 mph 1025.3mb 46f 29f
10:50pm 3.5ft 5s 4s 16 20 mph 1025mb 45f 28f
9:50pm 3.5ft 5s 4s 18 22 mph 1024.5mb 46f 28f
8:50pm 3.5ft 6s 4s 20 25 mph 1024mb 46f 28f
7:50pm 2.5ft 5s 4s 20 22 mph 1023.5mb 46f 29f
6:50pm 3ft 5s 4s 13 18 mph 1023.1mb 46f 29f
5:50pm 3.5ft 5s 4s 16 20 mph 1022.6mb 46f 29f
4:50pm 3.5ft 6s 4s 18 22 mph 1022.2mb 46f 29f
3:50pm 3ft 6s 4s 20 22 mph 1021.7mb 46f 29f
2:50pm 2.5ft 6s 4s 11 16 mph 1021.3mb 46f 29f
1:50pm 2.5ft 5s 4s 9 13 mph 1020.8mb 46f 29f
12:50pm 2.5ft 5s 4s 9 11 mph 1020.3mb 45f 30f
11:50am 3ft 6s 4s 9 16 mph 1019.9mb 45f 29f
10:50am 3.5ft 6s 4s 11 18 mph 1019.1mb 45f 29f
9:50am 4ft 6s 5s 20 25 mph 1018.1mb 45f 30f
7:50am 3.5ft 5s 4s 13 16 mph 1016.5mb 45f 30f
6:50am 2.5ft 5s 4s 11 13 mph 1015.6mb 45f 30f
5:50am 2.5ft 5s 4s 9 13 mph 1015.1mb 45f 29f
4:50am 3ft 6s 4s 11 18 mph 1014.5mb 45f 30f
3:50am 3ft 6s 4s 16 20 mph 1013.7mb 45f 31f
2:50am 2.5ft 5s 4s 11 16 mph 1013.3mb 45f 31f
1:50am 3ft 6s 4s 13 16 mph 1012.6mb 45f 31f
12:50am 3ft 4s 4s 16 20 mph 1011.6mb 45f 31f
Sat 12/03 11:50pm 3.5ft 5s 4s 13 16 mph 1011.1mb 46f 32f
10:50pm 3.5ft 3s 4s 13 18 mph 1010mb 46f 32f
9:50pm 3ft 6s 4s 16 20 mph 1008.7mb 46f 33f
8:50pm 2.5ft 5s 4s 4 9 mph 1007.8mb 46f 33f
7:50pm 2.5ft 4s 4s 4 9 mph 1006.3mb 46f 33f
6:50pm 2.5ft 6s 4s 11 16 mph 1004.8mb 46f 33f
5:50pm 2.5ft 5s 4s 11 13 mph 1003.4mb 46f 31f
4:50pm  -   -   -  13 18 mph 1001.8mb 46f 33f
3:50pm 2.5ft 6s 4s 13 18 mph 1000.7mb 46f 33f
2:50pm 2.5ft 11s 4s 13 20 mph 999.6mb 46f 31f
1:50pm 3ft 12s 4s 16 22 mph 998.2mb 46f 33f
12:50pm 3ft 11s 5s 16 20 mph 997.5mb 46f 31f
11:50am 2.5ft 13s 5s 13 16 mph 996.9mb 46f 30f
10:50am 3ft 12s 4s 7 11 mph 996mb 46f 30f
9:50am 3.5ft 12s 4s 16 20 mph 994.6mb 46f 33f
8:50am 3ft 12s 4s 16 20 mph 993.7mb 46f 35f
7:50am 3.5ft 4s 5s 13 16 mph 993.2mb 46f 35f
6:50am 3.5ft 5s 5s 11 13 mph 992.7mb 46f 35f
5:50am 3.5ft 5s 4s 11 13 mph 992.3mb 46f 35f
4:50am 4.5ft 5s 5s 16 18 mph 991.7mb 46f 36f
3:50am 5ft 5s 5s 13 16 mph 991.2mb 46f 36f
2:50am 5ft 6s 5s 9 18 mph 991.1mb 46f 36f
1:50am 5ft 6s 5s 22 29 mph 990.4mb 46f 34f
12:50am 5ft 6s 5s 25 29 mph 989.6mb 45f 36f
Fri 12/02 11:50pm 5.5ft 6s 5s 25 31 mph 989mb 46f 35f
10:50pm 5.5ft 5s 5s 25 31 mph 988.4mb 46f 35f
9:50pm 5.5ft 5s 5s 25 31 mph 987.7mb 46f 36f
8:50pm 5.5ft 6s 5s 25 31 mph 986.8mb 46f 37f
7:50pm 5.5ft 6s 5s 27 31 mph 985.7mb 46f 37f
6:50pm 6ft 6s 5s 27 34 mph 985mb 46f 37f
5:50pm 6ft 6s 5s 27 34 mph 984mb 46f 37f
4:50pm 6ft 6s 5s 29 34 mph 983mb 46f 37f
3:50pm 6ft 6s 5s 29 34 mph 982.2mb 46f 38f
2:50pm 6.5ft 6s 5s 29 34 mph 981.5mb 46f 38f
1:50pm 6ft 6s 5s 29 34 mph 981.1mb 46f 38f
12:50pm 5ft 6s 5s 27 34 mph 980.6mb 46f 40f
11:50am 5ft 5s 5s 27 31 mph 980.1mb 46f 40f
10:50am 5ft 6s 5s 25 29 mph 979.7mb 46f 40f
9:50am 4ft 5s 4s 27 34 mph 979.1mb 46f 41f
8:50am 3.5ft 5s 4s 27 29 mph 978.9mb 46f 41f
7:50am 3.5ft 5s 4s 22 27 mph 978.7mb 46f 42f
6:50am 3.5ft 4s 4s 20 25 mph 979.2mb 46f 42f
5:50am 3.5ft 4s 4s 20 25 mph 979.3mb 46f 42f
4:50am 3ft 4s 4s 22 27 mph 979.3mb 46f 42f
3:50am 2.5ft 4s 4s 22 25 mph 979.9mb 46f 43f
2:50am 3ft 4s 4s 18 22 mph 980.8mb 46f 42f
1:50am 3ft 11s 4s 20 22 mph 981.8mb 46f 42f
12:50am 3ft 11s 5s 20 25 mph 982.9mb 46f 42f
Thu 12/01 11:50pm 3ft 11s 6s 13 16 mph 984.7mb 46f 41f
10:50pm 3.5ft 11s 6s 13 18 mph 986mb 47f 40f
9:50pm 3.5ft 12s 5s 16 20 mph 986.7mb 47f 41f
8:50pm 4.5ft 12s 6s 18 22 mph 987.3mb 47f 42f
7:50pm 3.5ft 13s 5s 18 22 mph 987.7mb 47f 42f
6:50pm 3.5ft 13s 4s 20 22 mph 988mb 47f 41f
5:50pm 2.5ft 4s 4s 22 27 mph 988.1mb 47f 41f
4:50pm 3ft 9s 4s 20 25 mph 988.6mb 47f 41f
3:50pm 3.5ft 9s 4s 20 25 mph 988.8mb 47f 41f
2:50pm 3ft 10s 4s 22 27 mph 989.3mb 47f 40f